Time;durP1;ratioP1;P1;durP2;ratioP2;P2;SDS_P1;SDS_P2;PMS_P1;PMS_P2;Temp;Humidity;BMP_temperature;BMP_pressure;BME280_temperature;BME280_humidity;BME280_pressure;Samples;Min_cycle;Max_cycle;Signal;HPM_P1;HPM_P2
2021/05/31 00:00:32;;;;;;;2.75;1.50;;;21.10;44.60;;;;;;5095633;28;20025;-62
2021/05/31 00:02:58;;;;;;;4.20;1.50;;;21.10;44.60;;;;;;5095659;28;20053;-62
2021/05/31 00:05:25;;;;;;;1.75;1.02;;;21.10;44.60;;;;;;5095472;28;20012;-62
2021/05/31 00:07:54;;;;;;;2.53;1.30;;;21.00;44.60;;;;;;5095436;28;20035;-61
2021/05/31 00:10:21;;;;;;;3.97;1.50;;;21.00;44.60;;;;;;5095341;28;20024;-62
2021/05/31 00:12:47;;;;;;;2.75;1.40;;;21.00;44.60;;;;;;5094029;28;20028;-62
2021/05/31 00:15:12;;;;;;;2.80;1.35;;;21.00;44.60;;;;;;5094322;28;20483;-62
2021/05/31 00:17:38;;;;;;;3.03;1.60;;;21.00;44.70;;;;;;5095372;28;20024;-62
2021/05/31 00:20:07;;;;;;;2.75;1.30;;;21.00;44.70;;;;;;5095151;28;20020;-61
2021/05/31 00:22:32;;;;;;;2.33;1.20;;;21.00;44.70;;;;;;5094802;28;20048;-62
2021/05/31 00:24:58;;;;;;;4.32;1.35;;;20.90;44.80;;;;;;5095076;28;20522;-62
2021/05/31 00:27:23;;;;;;;5.15;1.58;;;20.90;44.80;;;;;;5095268;28;20020;-62
2021/05/31 00:29:49;;;;;;;3.67;1.40;;;20.90;44.80;;;;;;5096856;28;20472;-61
2021/05/31 00:32:15;;;;;;;3.25;1.77;;;20.90;44.80;;;;;;5095082;28;20043;-62
2021/05/31 00:34:41;;;;;;;2.80;1.45;;;20.90;44.80;;;;;;5094785;28;20027;-62
2021/05/31 00:37:07;;;;;;;3.63;1.23;;;20.90;44.80;;;;;;5095004;28;20024;-61
2021/05/31 00:39:32;;;;;;;3.83;1.80;;;20.80;44.80;;;;;;5094755;28;20483;-62
2021/05/31 00:41:59;;;;;;;4.55;1.58;;;20.90;44.80;;;;;;5094871;28;20466;-62
2021/05/31 00:44:25;;;;;;;3.83;1.90;;;20.80;44.80;;;;;;5094678;28;20028;-62
2021/05/31 00:46:52;;;;;;;2.47;1.33;;;20.80;44.80;;;;;;5094560;28;20479;-62
2021/05/31 00:49:21;;;;;;;3.53;1.48;;;20.80;44.80;;;;;;5094852;28;20020;-62
2021/05/31 00:51:47;;;;;;;3.15;1.60;;;20.80;44.90;;;;;;5094486;28;20024;-62
2021/05/31 00:54:13;;;;;;;3.10;1.50;;;20.80;44.90;;;;;;5094675;28;20074;-62
2021/05/31 00:56:41;;;;;;;3.17;1.30;;;20.80;44.90;;;;;;5094537;28;20446;-62
2021/05/31 00:59:08;;;;;;;3.83;1.60;;;20.70;44.90;;;;;;5094338;28;20439;-62
2021/05/31 01:01:34;;;;;;;3.08;1.50;;;20.80;44.90;;;;;;5094567;28;20024;-62
2021/05/31 01:04:01;;;;;;;2.47;1.48;;;20.80;44.90;;;;;;5094277;28;20454;-62
2021/05/31 01:06:32;;;;;;;3.03;1.38;;;20.80;45.00;;;;;;5094331;28;20040;-62
2021/05/31 01:09:24;;;;;;;3.97;1.73;;;20.70;45.00;;;;;;5094889;28;20028;-62
2021/05/31 01:12:02;;;;;;;3.15;1.58;;;20.70;45.00;;;;;;5095599;28;20165;-62
2021/05/31 01:14:35;;;;;;;4.03;1.60;;;20.70;45.00;;;;;;5105621;28;20027;-69
2021/05/31 01:17:14;;;;;;;3.05;1.45;;;20.70;45.00;;;;;;5105977;28;20036;-64
2021/05/31 01:19:48;;;;;;;2.55;1.30;;;20.70;45.00;;;;;;5104638;28;20499;-64
2021/05/31 01:22:15;;;;;;;3.13;1.60;;;20.70;45.00;;;;;;5105706;28;20035;-63
2021/05/31 01:24:50;;;;;;;4.22;1.52;;;20.70;45.10;;;;;;5105368;28;20032;-62
2021/05/31 01:27:26;;;;;;;6.43;1.75;;;20.60;45.10;;;;;;5103418;28;20056;-62
2021/05/31 01:30:06;;;;;;;2.65;1.38;;;20.60;45.10;;;;;;5103685;28;20020;-62
2021/05/31 01:32:43;;;;;;;3.00;1.33;;;20.60;45.10;;;;;;5092770;28;20395;-62
2021/05/31 01:35:17;;;;;;;3.22;1.70;;;20.60;45.10;;;;;;5094199;28;20035;-62
2021/05/31 01:37:44;;;;;;;3.25;1.40;;;20.60;45.20;;;;;;5094406;28;20066;-62
2021/05/31 01:40:12;;;;;;;2.20;1.30;;;20.50;45.20;;;;;;5093742;28;20028;-62
2021/05/31 01:42:38;;;;;;;3.42;1.33;;;20.60;45.20;;;;;;5094113;28;20028;-62
2021/05/31 01:45:05;;;;;;;3.05;1.40;;;20.50;45.20;;;;;;5094753;28;20012;-62
2021/05/31 01:47:32;;;;;;;3.33;1.48;;;20.50;45.20;;;;;;5094021;28;20028;-62
2021/05/31 01:49:57;;;;;;;4.38;1.63;;;20.60;45.20;;;;;;5093570;28;20020;-62
2021/05/31 01:52:23;;;;;;;3.03;1.52;;;20.60;45.20;;;;;;5094111;28;20177;-62
2021/05/31 01:54:56;;;;;;;3.17;1.40;;;20.50;45.30;;;;;;5092459;28;20494;-62
2021/05/31 01:57:23;;;;;;;3.03;1.55;;;20.50;45.20;;;;;;5094259;28;20024;-62
2021/05/31 01:59:50;;;;;;;2.90;1.60;;;20.50;45.30;;;;;;5093733;28;20024;-62
2021/05/31 02:02:16;;;;;;;2.58;1.48;;;20.50;45.30;;;;;;5093882;28;20499;-61
2021/05/31 02:04:42;;;;;;;4.75;1.90;;;20.50;45.30;;;;;;5093708;28;20031;-62
2021/05/31 02:07:08;;;;;;;3.45;1.50;;;20.50;45.30;;;;;;5093367;28;20107;-62
2021/05/31 02:09:33;;;;;;;3.85;1.33;;;20.50;45.30;;;;;;5093504;28;20081;-62
2021/05/31 02:12:07;;;;;;;4.78;1.58;;;20.50;45.30;;;;;;5093198;28;20045;-61
2021/05/31 02:14:53;;;;;;;2.55;1.27;;;20.40;45.30;;;;;;5093091;28;20423;-61
2021/05/31 02:17:57;;;;;;;3.45;1.52;;;20.50;45.40;;;;;;5093184;28;20055;-62
2021/05/31 02:20:25;;;;;;;3.33;1.80;;;20.40;45.40;;;;;;5093105;28;20109;-62
2021/05/31 02:22:56;;;;;;;3.38;1.60;;;20.40;45.40;;;;;;5092946;28;20040;-62
2021/05/31 02:25:22;;;;;;;2.55;1.17;;;20.40;45.40;;;;;;5093107;28;20024;-62
2021/05/31 02:27:50;;;;;;;2.45;1.30;;;20.40;45.40;;;;;;5093202;28;20119;-62
2021/05/31 02:30:17;;;;;;;2.90;1.60;;;20.40;45.40;;;;;;5092994;28;20056;-62
2021/05/31 02:32:57;;;;;;;2.80;1.40;;;20.40;45.40;;;;;;5093157;28;20036;-62
2021/05/31 02:35:24;;;;;;;3.60;1.48;;;20.40;45.40;;;;;;5093009;28;20024;-62
2021/05/31 02:37:50;;;;;;;3.50;1.65;;;20.30;45.40;;;;;;5093520;28;20490;-62
2021/05/31 02:40:16;;;;;;;3.45;1.60;;;20.30;45.40;;;;;;5097065;28;20095;-62
2021/05/31 02:42:46;;;;;;;3.97;1.63;;;20.30;45.40;;;;;;5097096;28;20050;-62
2021/05/31 02:45:12;;;;;;;3.47;1.58;;;20.30;45.50;;;;;;5097196;28;20024;-62
2021/05/31 02:47:38;;;;;;;2.80;1.42;;;20.30;45.50;;;;;;5096750;28;20026;-62
2021/05/31 02:50:04;;;;;;;3.30;1.67;;;20.30;45.50;;;;;;5096983;28;20107;-62
2021/05/31 02:52:30;;;;;;;3.72;1.58;;;20.30;45.50;;;;;;5096759;28;20430;-62
2021/05/31 02:54:55;;;;;;;3.17;1.63;;;20.30;45.50;;;;;;5096523;28;20023;-62
2021/05/31 02:57:21;;;;;;;2.85;1.50;;;20.30;45.50;;;;;;5096726;28;20032;-62
2021/05/31 02:59:46;;;;;;;4.60;1.65;;;20.20;45.50;;;;;;5096984;28;20415;-62
2021/05/31 03:02:12;;;;;;;3.35;1.55;;;20.30;45.60;;;;;;5096796;28;20020;-62
2021/05/31 03:04:38;;;;;;;2.63;1.35;;;20.30;45.60;;;;;;5096671;28;20031;-62
2021/05/31 03:07:04;;;;;;;3.83;1.50;;;20.20;45.60;;;;;;5096354;28;20120;-62
2021/05/31 03:09:29;;;;;;;3.85;1.48;;;20.20;45.60;;;;;;5096616;28;20028;-62
2021/05/31 03:11:55;;;;;;;2.38;1.45;;;20.20;45.60;;;;;;5096348;28;20170;-62
2021/05/31 03:14:20;;;;;;;1.75;1.08;;;20.20;45.60;;;;;;5096261;28;20020;-62
2021/05/31 03:16:46;;;;;;;4.55;1.77;;;20.20;45.60;;;;;;5096541;28;20031;-62
2021/05/31 03:19:11;;;;;;;3.20;1.60;;;20.20;45.60;;;;;;5096292;28;20028;-62
2021/05/31 03:21:37;;;;;;;3.45;1.50;;;20.20;45.60;;;;;;5096218;28;20024;-62
2021/05/31 03:24:03;;;;;;;3.08;1.70;;;20.20;45.60;;;;;;5096086;28;20047;-62
2021/05/31 03:26:29;;;;;;;3.03;1.63;;;20.20;45.60;;;;;;5096178;28;20344;-62
2021/05/31 03:28:54;;;;;;;3.92;1.80;;;20.20;45.60;;;;;;5096179;28;20032;-62
2021/05/31 03:31:20;;;;;;;3.97;1.60;;;20.10;45.70;;;;;;5095832;28;20531;-62
2021/05/31 03:33:45;;;;;;;3.10;1.50;;;20.20;45.70;;;;;;5096487;28;20495;-62
2021/05/31 03:36:11;;;;;;;4.13;1.60;;;20.10;45.60;;;;;;5096055;28;20413;-62
2021/05/31 03:38:37;;;;;;;3.58;1.40;;;20.10;45.70;;;;;;5096074;28;20028;-62
2021/05/31 03:41:02;;;;;;;3.65;1.60;;;20.10;45.70;;;;;;5095898;28;20025;-62
2021/05/31 03:43:28;;;;;;;3.55;1.83;;;20.10;45.70;;;;;;5095667;28;20036;-62
2021/05/31 03:45:53;;;;;;;3.05;1.75;;;20.10;45.70;;;;;;5095981;28;20447;-62
2021/05/31 03:48:19;;;;;;;3.05;1.75;;;20.10;45.70;;;;;;5095899;28;20016;-62
2021/05/31 03:50:44;;;;;;;3.53;1.70;;;20.10;45.70;;;;;;5094150;28;20049;-62
2021/05/31 03:53:10;;;;;;;3.20;1.50;;;20.10;45.70;;;;;;5095914;28;20042;-62
2021/05/31 03:55:36;;;;;;;3.88;1.52;;;20.10;45.70;;;;;;5095754;28;20050;-62
2021/05/31 03:58:01;;;;;;;3.10;1.45;;;20.00;45.70;;;;;;5095705;28;20077;-62
2021/05/31 04:00:28;;;;;;;4.03;1.63;;;20.00;45.70;;;;;;5095398;28;20031;-62
2021/05/31 04:02:54;;;;;;;3.85;1.73;;;20.00;45.70;;;;;;5095466;28;20032;-62
2021/05/31 04:05:20;;;;;;;4.20;2.20;;;20.00;45.70;;;;;;5095326;28;20069;-62
2021/05/31 04:13:16;;;;;;;2.95;1.67;;;20.00;45.80;;;;;;5095329;28;20070;-62
2021/05/31 04:15:42;;;;;;;3.75;1.45;;;20.00;45.70;;;;;;5095358;28;20024;-62
2021/05/31 04:18:08;;;;;;;5.40;2.10;;;20.00;45.80;;;;;;5095175;28;20047;-62
2021/05/31 04:20:34;;;;;;;3.47;1.70;;;20.00;45.80;;;;;;5095143;28;20016;-62
2021/05/31 04:23:00;;;;;;;4.00;1.73;;;20.00;45.80;;;;;;5095133;28;20479;-62
2021/05/31 04:25:25;;;;;;;2.95;1.50;;;20.00;45.80;;;;;;5095303;28;20081;-62
2021/05/31 04:27:51;;;;;;;3.40;1.50;;;20.00;45.80;;;;;;5095291;28;20032;-62
2021/05/31 04:30:17;;;;;;;3.63;1.50;;;20.00;45.80;;;;;;5094816;28;20023;-62
2021/05/31 04:32:42;;;;;;;3.05;1.60;;;20.00;45.80;;;;;;5094676;28;20032;-62
2021/05/31 04:35:08;;;;;;;3.33;1.80;;;20.00;45.80;;;;;;5095165;28;20368;-62
2021/05/31 04:37:34;;;;;;;6.03;2.08;;;20.00;45.80;;;;;;5094586;28;20024;-62
2021/05/31 04:40:02;;;;;;;4.00;1.88;;;20.00;45.80;;;;;;5094798;28;20073;-62
2021/05/31 04:42:27;;;;;;;3.08;1.73;;;20.00;45.80;;;;;;5094576;28;20074;-62
2021/05/31 04:44:53;;;;;;;3.97;1.88;;;19.90;45.90;;;;;;5094472;28;20032;-62
2021/05/31 04:47:18;;;;;;;3.33;1.67;;;19.90;45.90;;;;;;5094757;28;20016;-62
2021/05/31 04:49:44;;;;;;;3.28;1.70;;;19.90;45.90;;;;;;5094645;28;20111;-62
2021/05/31 04:52:10;;;;;;;3.17;1.83;;;19.90;45.90;;;;;;5094306;28;20043;-62
2021/05/31 04:54:36;;;;;;;4.20;2.22;;;19.90;45.90;;;;;;5094246;28;20024;-62
2021/05/31 04:57:01;;;;;;;4.75;1.55;;;19.90;45.90;;;;;;5094066;28;20024;-62
2021/05/31 04:59:27;;;;;;;3.67;1.90;;;19.90;45.90;;;;;;5094460;28;20126;-62
2021/05/31 05:01:53;;;;;;;4.75;1.80;;;19.90;45.90;;;;;;5094252;28;20476;-62
2021/05/31 05:04:18;;;;;;;5.15;1.98;;;19.90;45.90;;;;;;5094268;28;20095;-62
2021/05/31 05:06:44;;;;;;;4.35;1.88;;;19.90;45.90;;;;;;5094566;28;20020;-62
2021/05/31 05:09:09;;;;;;;3.08;1.63;;;19.90;45.90;;;;;;5094141;28;20375;-62
2021/05/31 05:11:35;;;;;;;4.55;1.95;;;19.90;45.90;;;;;;5094181;28;20551;-62
2021/05/31 05:14:01;;;;;;;4.13;1.75;;;19.90;45.90;;;;;;5094459;28;20020;-62
2021/05/31 05:16:27;;;;;;;3.92;1.90;;;19.90;45.90;;;;;;5093788;28;20483;-62
2021/05/31 05:18:54;;;;;;;3.90;1.80;;;19.90;45.90;;;;;;5094331;28;20032;-62
2021/05/31 05:21:20;;;;;;;3.03;1.60;;;19.90;45.90;;;;;;5093980;28;20468;-62
2021/05/31 05:23:47;;;;;;;4.03;1.85;;;19.90;45.90;;;;;;5093957;28;20052;-63
2021/05/31 05:26:13;;;;;;;4.07;2.00;;;19.90;45.90;;;;;;5093865;28;20474;-62
2021/05/31 05:28:38;;;;;;;3.83;1.52;;;19.90;45.90;;;;;;5094054;28;20106;-62
2021/05/31 05:31:09;;;;;;;3.92;1.70;;;19.90;45.90;;;;;;5093506;28;20028;-62
2021/05/31 05:33:36;;;;;;;3.58;1.75;;;19.90;45.90;;;;;;5093930;28;20077;-62
2021/05/31 05:36:20;;;;;;;3.88;1.80;;;19.90;45.90;;;;;;5093801;28;20012;-62
2021/05/31 05:44:25;;;;;;;4.63;1.80;;;19.90;45.90;;;;;;5093377;28;20103;-62
2021/05/31 05:47:03;;;;;;;5.60;2.22;;;19.90;45.90;;;;;;5093551;28;20467;-62
2021/05/31 05:49:29;;;;;;;5.38;1.95;;;19.90;45.90;;;;;;5093817;28;20073;-63
2021/05/31 05:51:55;;;;;;;3.95;1.80;;;19.90;45.90;;;;;;5093134;28;20499;-61
2021/05/31 05:54:20;;;;;;;4.45;1.90;;;20.00;45.90;;;;;;5093180;28;20016;-62
2021/05/31 05:56:46;;;;;;;4.85;2.10;;;19.90;45.90;;;;;;5093339;28;20386;-62
2021/05/31 05:59:11;;;;;;;3.65;1.70;;;19.90;45.90;;;;;;5093243;28;20031;-62
2021/05/31 06:01:37;;;;;;;4.15;1.88;;;20.00;45.90;;;;;;5093519;28;20026;-62
2021/05/31 06:04:03;;;;;;;3.35;1.60;;;20.00;45.90;;;;;;5093121;28;20023;-62
2021/05/31 06:06:30;;;;;;;4.95;1.83;;;20.00;45.80;;;;;;5093263;28;20032;-62
2021/05/31 06:08:55;;;;;;;3.20;1.70;;;20.00;45.80;;;;;;5093098;28;20125;-62
2021/05/31 06:11:21;;;;;;;4.88;2.05;;;20.00;45.80;;;;;;5092946;28;20107;-62
2021/05/31 06:13:50;;;;;;;5.10;2.10;;;20.00;45.70;;;;;;5095511;28;20073;-62
2021/05/31 06:16:16;;;;;;;3.95;1.90;;;20.00;45.70;;;;;;5089776;28;20028;-62
2021/05/31 06:18:42;;;;;;;3.40;1.70;;;20.00;45.70;;;;;;5100473;28;20031;-62
2021/05/31 06:21:07;;;;;;;4.47;1.92;;;20.00;45.80;;;;;;5090253;28;20024;-63
2021/05/31 06:23:33;;;;;;;3.83;1.90;;;20.00;45.70;;;;;;5096852;28;20492;-63
2021/05/31 06:25:59;;;;;;;5.80;2.00;;;20.00;45.70;;;;;;5087245;28;20024;-62
2021/05/31 06:28:24;;;;;;;3.65;1.98;;;20.00;45.60;;;;;;5084297;28;20027;-62
2021/05/31 06:30:50;;;;;;;4.43;1.77;;;20.10;45.60;;;;;;5095411;28;20024;-63
2021/05/31 06:33:18;;;;;;;3.92;1.85;;;20.10;45.60;;;;;;5090941;28;20490;-63
2021/05/31 06:35:45;;;;;;;4.28;1.90;;;20.10;45.50;;;;;;5089436;28;20494;-63
2021/05/31 06:38:10;;;;;;;3.78;1.90;;;20.10;45.60;;;;;;5079745;28;20066;-63
2021/05/31 06:40:36;;;;;;;3.67;1.80;;;20.20;45.50;;;;;;5077473;28;20028;-63
2021/05/31 06:43:02;;;;;;;3.22;1.98;;;20.10;45.50;;;;;;5103019;28;20035;-63
2021/05/31 06:45:29;;;;;;;5.28;2.10;;;20.10;45.50;;;;;;5082802;28;20020;-63
2021/05/31 06:47:57;;;;;;;4.07;2.10;;;20.10;45.50;;;;;;5090898;28;20028;-63
2021/05/31 06:50:25;;;;;;;3.13;1.85;;;20.20;45.50;;;;;;5079226;28;20082;-64
2021/05/31 06:52:50;;;;;;;8.60;1.83;;;20.20;45.50;;;;;;5092168;28;20044;-64
2021/05/31 06:55:17;;;;;;;4.50;2.00;;;20.20;45.60;;;;;;5095712;28;20020;-63
2021/05/31 06:57:43;;;;;;;4.32;2.00;;;20.20;45.60;;;;;;5087632;28;20081;-63
2021/05/31 07:00:12;;;;;;;4.72;2.15;;;20.20;45.50;;;;;;5092750;28;20021;-62
2021/05/31 07:02:38;;;;;;;3.53;1.70;;;20.20;45.60;;;;;;5089078;28;20050;-63
2021/05/31 07:05:06;;;;;;;4.55;1.95;;;20.20;45.70;;;;;;5086959;28;20033;-63
2021/05/31 07:07:31;;;;;;;4.85;1.80;;;20.30;45.70;;;;;;5092071;28;20065;-63
2021/05/31 07:09:57;;;;;;;4.22;1.80;;;20.30;45.70;;;;;;5099042;28;20020;-63
2021/05/31 07:12:23;;;;;;;4.35;1.98;;;20.30;45.60;;;;;;5085482;28;20048;-63
2021/05/31 07:14:51;;;;;;;3.95;2.00;;;20.40;45.70;;;;;;5093096;28;20103;-63
2021/05/31 07:17:16;;;;;;;5.40;2.53;;;20.40;45.70;;;;;;5084508;28;20044;-63
2021/05/31 07:19:44;;;;;;;4.75;2.08;;;20.40;45.80;;;;;;5085087;28;20034;-63
2021/05/31 07:22:22;;;;;;;4.25;1.90;;;20.40;45.80;;;;;;5099140;28;20034;-62
2021/05/31 07:24:48;;;;;;;4.13;2.10;;;20.40;45.90;;;;;;5083527;28;20032;-63
2021/05/31 07:27:13;;;;;;;4.85;2.10;;;20.40;45.90;;;;;;5088193;28;20110;-63
2021/05/31 07:29:39;;;;;;;3.40;1.70;;;20.40;45.80;;;;;;5081619;28;20112;-64
2021/05/31 07:32:06;;;;;;;4.95;2.15;;;20.40;45.70;;;;;;5083056;28;20079;-65
2021/05/31 07:34:32;;;;;;;3.42;1.90;;;20.40;45.80;;;;;;5088633;28;20020;-63
2021/05/31 07:36:57;;;;;;;4.38;1.98;;;20.50;45.70;;;;;;5092151;28;20076;-63
2021/05/31 07:39:23;;;;;;;7.60;2.10;;;20.50;45.70;;;;;;5090367;28;20476;-64
2021/05/31 07:41:49;;;;;;;7.25;2.25;;;20.50;45.80;;;;;;5088051;28;20112;-63
2021/05/31 07:44:15;;;;;;;4.50;1.80;;;20.50;45.70;;;;;;5095446;28;20035;-64
2021/05/31 07:46:41;;;;;;;5.88;2.22;;;20.50;45.80;;;;;;5086393;28;20498;-64
2021/05/31 07:49:07;;;;;;;6.40;2.00;;;20.50;45.80;;;;;;5093890;28;20064;-64
2021/05/31 07:51:32;;;;;;;4.15;2.25;;;20.50;45.80;;;;;;5093243;28;20050;-64
2021/05/31 07:53:59;;;;;;;6.25;2.08;;;20.50;45.80;;;;;;5092101;28;20054;-65
2021/05/31 07:56:26;;;;;;;3.47;2.10;;;20.50;45.80;;;;;;5099925;28;20114;-65
2021/05/31 07:58:54;;;;;;;3.95;2.10;;;20.50;45.80;;;;;;5093674;28;20652;-66
2021/05/31 08:01:20;;;;;;;4.13;2.08;;;20.50;45.90;;;;;;5095271;28;20059;-66
2021/05/31 08:03:47;;;;;;;3.63;1.90;;;20.50;45.90;;;;;;5099872;28;20032;-66
2021/05/31 08:06:12;;;;;;;5.97;2.13;;;20.60;45.80;;;;;;5091833;28;20081;-65
2021/05/31 08:08:39;;;;;;;4.43;2.08;;;20.60;45.90;;;;;;5094034;28;20111;-64
2021/05/31 08:11:06;;;;;;;5.00;1.98;;;20.60;45.90;;;;;;5092523;28;20081;-68
2021/05/31 08:13:31;;;;;;;5.30;1.90;;;20.60;46.00;;;;;;5092482;28;20028;-64
2021/05/31 08:15:57;;;;;;;10.30;2.28;;;20.60;46.10;;;;;;5091267;28;20096;-66
2021/05/31 08:18:23;;;;;;;5.05;2.08;;;20.60;46.00;;;;;;5084315;28;20117;-63
2021/05/31 08:20:48;;;;;;;6.80;2.38;;;20.60;46.00;;;;;;5096802;28;20103;-65
2021/05/31 08:23:14;;;;;;;3.53;1.98;;;20.60;46.00;;;;;;5088907;28;20091;-64
2021/05/31 08:25:41;;;;;;;3.72;2.00;;;20.70;46.00;;;;;;5089835;28;20598;-64
2021/05/31 08:28:07;;;;;;;5.80;2.40;;;20.70;45.90;;;;;;5086068;28;20040;-64
2021/05/31 08:30:34;;;;;;;4.00;2.00;;;20.70;45.90;;;;;;5079820;28;20505;-62
2021/05/31 08:33:01;;;;;;;5.32;2.00;;;20.70;45.90;;;;;;5084739;28;20545;-66
2021/05/31 08:35:26;;;;;;;8.18;2.15;;;20.60;46.00;;;;;;5087712;28;20032;-65
2021/05/31 08:37:52;;;;;;;8.68;2.10;;;20.70;46.00;;;;;;5091972;28;20130;-65
2021/05/31 08:40:18;;;;;;;4.88;1.83;;;20.70;45.90;;;;;;5091020;28;20024;-66
2021/05/31 08:42:45;;;;;;;4.70;1.67;;;20.70;46.00;;;;;;5086308;28;20032;-64
2021/05/31 08:45:14;;;;;;;4.43;2.08;;;20.70;46.10;;;;;;5085399;28;20032;-64
2021/05/31 08:47:42;;;;;;;4.40;1.90;;;20.70;46.00;;;;;;5085267;28;20487;-66
2021/05/31 08:50:09;;;;;;;5.07;2.30;;;20.70;46.00;;;;;;5090887;28;20028;-65
2021/05/31 08:52:36;;;;;;;5.25;2.17;;;20.70;46.00;;;;;;5086846;28;20074;-64
2021/05/31 08:55:05;;;;;;;3.67;1.70;;;20.70;46.10;;;;;;5075908;28;20063;-65
2021/05/31 08:57:31;;;;;;;6.25;2.17;;;20.70;46.10;;;;;;5071339;28;20056;-63
2021/05/31 08:59:57;;;;;;;4.10;1.95;;;20.70;46.10;;;;;;5072320;28;20064;-65
2021/05/31 09:02:23;;;;;;;4.30;1.90;;;20.70;46.10;;;;;;5078193;28;20039;-64
2021/05/31 09:04:51;;;;;;;6.97;1.90;;;20.70;46.20;;;;;;5089796;28;20030;-65
2021/05/31 09:07:20;;;;;;;6.55;2.03;;;20.80;46.10;;;;;;5081711;28;20105;-64
2021/05/31 09:09:47;;;;;;;8.38;2.60;;;20.80;46.10;;;;;;5085071;28;20036;-64
2021/05/31 09:12:20;;;;;;;3.53;1.90;;;20.80;46.10;;;;;;5086019;28;20040;-65
2021/05/31 09:14:56;;;;;;;3.25;1.63;;;20.70;46.10;;;;;;5079370;28;20029;-65
2021/05/31 09:17:30;;;;;;;4.50;1.92;;;20.80;46.10;;;;;;5084113;28;20032;-65
2021/05/31 09:19:57;;;;;;;6.60;2.00;;;20.80;46.20;;;;;;5085364;28;20111;-64
2021/05/31 09:22:24;;;;;;;4.88;2.00;;;20.80;46.20;;;;;;5090519;28;20028;-64
2021/05/31 09:25:04;;;;;;;4.97;2.03;;;20.70;46.20;;;;;;5082494;28;20059;-61
2021/05/31 09:27:31;;;;;;;5.55;1.80;;;20.80;46.20;;;;;;5089356;28;20024;-63
2021/05/31 09:30:02;;;;;;;7.15;2.17;;;20.80;46.10;;;;;;5086326;28;20031;-64
2021/05/31 09:32:28;;;;;;;5.70;2.25;;;20.80;46.10;;;;;;5084093;28;20040;-63
2021/05/31 09:35:07;;;;;;;4.85;1.88;;;20.80;46.00;;;;;;5072154;28;20047;-62
2021/05/31 09:37:42;;;;;;;6.78;2.22;;;20.80;45.90;;;;;;5080283;28;20020;-63
2021/05/31 09:40:08;;;;;;;3.78;1.88;;;20.90;46.00;;;;;;5089570;28;20032;-65
2021/05/31 09:42:34;;;;;;;3.55;1.60;;;20.90;45.90;;;;;;5075411;28;20028;-65
2021/05/31 09:45:08;;;;;;;5.15;2.03;;;20.90;46.00;;;;;;5089613;28;20024;-66
2021/05/31 09:47:36;;;;;;;4.47;2.00;;;20.90;46.10;;;;;;5082172;28;20043;-66
2021/05/31 09:50:04;;;;;;;5.35;1.70;;;20.90;46.10;;;;;;5078951;28;20042;-65
2021/05/31 09:52:29;;;;;;;4.20;2.05;;;20.90;46.10;;;;;;5073474;28;20035;-63
2021/05/31 09:54:55;;;;;;;4.05;1.90;;;21.00;46.00;;;;;;5084278;28;20032;-67
2021/05/31 09:57:20;;;;;;;3.40;1.80;;;21.00;46.00;;;;;;5085942;28;20105;-64
2021/05/31 09:59:55;;;;;;;3.53;1.70;;;21.00;46.00;;;;;;5075284;28;20105;-65
2021/05/31 10:02:31;;;;;;;4.45;1.70;;;21.00;45.90;;;;;;5079927;28;20034;-64
2021/05/31 10:05:06;;;;;;;4.45;2.10;;;21.00;45.90;;;;;;5086292;28;20035;-63
2021/05/31 10:07:45;;;;;;;7.22;1.80;;;21.00;45.90;;;;;;5090910;28;20036;-63
2021/05/31 10:10:12;;;;;;;3.88;1.73;;;21.00;45.90;;;;;;5075679;28;20378;-62
2021/05/31 10:12:38;;;;;;;4.10;1.70;;;21.00;45.90;;;;;;5090577;28;20432;-63
2021/05/31 10:15:06;;;;;;;5.35;2.28;;;21.00;45.80;;;;;;5081229;28;20358;-64
2021/05/31 10:17:32;;;;;;;5.68;1.98;;;21.00;45.80;;;;;;5091057;28;20537;-66
2021/05/31 10:19:59;;;;;;;4.53;2.00;;;21.00;45.90;;;;;;5085795;28;20063;-64
2021/05/31 10:22:24;;;;;;;5.80;2.10;;;21.00;45.90;;;;;;5085914;28;20028;-64
2021/05/31 10:24:50;;;;;;;5.78;2.10;;;21.00;45.90;;;;;;5074274;28;20521;-64
2021/05/31 10:27:17;;;;;;;4.32;1.98;;;21.00;45.90;;;;;;5088794;28;20456;-64
2021/05/31 10:29:44;;;;;;;6.15;2.05;;;21.00;45.80;;;;;;5090723;28;20028;-64
2021/05/31 10:32:11;;;;;;;6.13;1.92;;;21.10;45.80;;;;;;5073314;28;20131;-64
2021/05/31 10:34:51;;;;;;;4.97;1.80;;;21.10;45.80;;;;;;5084753;28;20063;-63
2021/05/31 10:37:26;;;;;;;5.55;2.15;;;21.00;45.70;;;;;;5077435;28;20024;-64
2021/05/31 10:40:06;;;;;;;3.25;1.73;;;21.10;45.70;;;;;;5071285;28;20032;-64
2021/05/31 10:42:46;;;;;;;5.13;1.83;;;21.10;45.70;;;;;;5084409;28;20123;-63
2021/05/31 10:45:30;;;;;;;4.88;1.80;;;21.10;45.70;;;;;;5081782;28;20540;-64
2021/05/31 10:47:59;;;;;;;6.07;1.88;;;21.10;45.70;;;;;;5087986;28;20024;-60
2021/05/31 10:50:31;;;;;;;4.30;1.83;;;21.10;45.70;;;;;;5078956;28;20036;-63
2021/05/31 10:52:58;;;;;;;4.88;1.80;;;21.20;45.70;;;;;;5085100;28;20058;-61
2021/05/31 10:55:26;;;;;;;7.47;2.13;;;21.20;45.70;;;;;;5073713;28;20105;-62
2021/05/31 10:57:53;;;;;;;6.45;2.05;;;21.20;45.60;;;;;;5071346;28;20073;-62
2021/05/31 11:00:30;;;;;;;3.45;1.70;;;21.20;45.60;;;;;;5078364;28;20063;-63
2021/05/31 11:03:11;;;;;;;4.57;2.00;;;21.20;45.60;;;;;;5084358;28;20047;-62
2021/05/31 11:05:39;;;;;;;4.32;2.03;;;21.20;45.60;;;;;;5081476;28;20042;-63
2021/05/31 11:08:08;;;;;;;5.93;1.95;;;21.20;45.50;;;;;;5088581;28;20572;-64
2021/05/31 11:10:36;;;;;;;5.55;2.05;;;21.30;45.50;;;;;;5085337;28;20128;-65
2021/05/31 11:13:15;;;;;;;5.88;2.42;;;21.30;45.50;;;;;;5086582;28;20099;-61
2021/05/31 11:15:43;;;;;;;7.32;1.60;;;21.30;45.40;;;;;;5080806;28;20434;-63
2021/05/31 11:18:09;;;;;;;3.55;1.80;;;21.40;45.40;;;;;;5091766;28;20051;-61
2021/05/31 11:20:40;;;;;;;4.38;1.70;;;21.40;45.40;;;;;;5090085;28;20016;-61
2021/05/31 11:23:06;;;;;;;5.63;2.30;;;21.40;45.40;;;;;;5083849;28;20040;-62
2021/05/31 11:25:32;;;;;;;4.35;1.95;;;21.40;45.30;;;;;;5085451;28;20107;-62
2021/05/31 11:28:03;;;;;;;4.93;2.30;;;21.50;45.20;;;;;;5080321;28;20460;-63
2021/05/31 11:30:31;;;;;;;3.58;1.70;;;21.50;45.20;;;;;;5092516;28;20349;-62
2021/05/31 11:33:00;;;;;;;5.18;1.83;;;21.50;45.20;;;;;;5087267;28;20547;-64
2021/05/31 11:35:26;;;;;;;4.60;1.80;;;21.50;45.20;;;;;;5084153;28;21302;-63
2021/05/31 11:37:54;;;;;;;5.65;1.90;;;21.50;45.10;;;;;;5088375;28;20081;-62
2021/05/31 11:40:23;;;;;;;4.30;2.00;;;21.50;45.00;;;;;;5082476;28;20442;-63
2021/05/31 11:42:54;;;;;;;4.07;2.00;;;21.60;45.00;;;;;;5092246;28;20036;-64
2021/05/31 11:45:21;;;;;;;4.32;1.95;;;21.70;44.90;;;;;;5093211;28;20031;-63
2021/05/31 11:47:56;;;;;;;3.90;1.80;;;21.70;44.90;;;;;;5090077;28;20039;-62
2021/05/31 11:50:23;;;;;;;5.15;2.05;;;21.70;44.90;;;;;;5091194;28;20085;-68
2021/05/31 11:52:49;;;;;;;3.75;1.73;;;21.80;44.80;;;;;;5087164;28;20048;-67
2021/05/31 11:55:21;;;;;;;4.80;2.10;;;21.90;44.60;;;;;;5089872;28;20020;-66
2021/05/31 11:57:48;;;;;;;6.35;2.13;;;21.80;44.50;;;;;;5090059;28;20114;-63
2021/05/31 12:00:21;;;;;;;3.85;1.88;;;21.70;44.50;;;;;;5084368;28;20465;-64
2021/05/31 12:02:48;;;;;;;4.57;1.83;;;21.90;44.70;;;;;;5076028;28;20048;-65
2021/05/31 12:05:15;;;;;;;4.07;1.80;;;21.90;44.60;;;;;;5099793;28;20062;-63
2021/05/31 12:07:44;;;;;;;3.25;1.77;;;22.00;44.50;;;;;;5091468;28;20401;-63
2021/05/31 12:10:10;;;;;;;4.68;2.05;;;22.00;44.60;;;;;;5086429;28;20117;-64
2021/05/31 12:12:36;;;;;;;4.10;1.80;;;22.00;44.50;;;;;;5081200;28;20584;-62
2021/05/31 12:15:03;;;;;;;3.63;1.63;;;22.00;44.40;;;;;;5082300;28;20063;-62
2021/05/31 12:17:29;;;;;;;3.47;1.77;;;22.10;44.30;;;;;;5084800;28;20090;-64
2021/05/31 12:19:56;;;;;;;4.25;2.03;;;22.20;44.30;;;;;;5087274;28;20698;-62
2021/05/31 12:22:30;;;;;;;4.15;1.75;;;22.20;44.20;;;;;;5089868;28;20038;-62
2021/05/31 12:24:57;;;;;;;;;;;22.30;44.20;;;;;;5088933;28;20046;-62
2021/05/31 12:27:25;;;;;;;6.53;2.00;;;22.30;44.30;;;;;;5092878;28;19908;-63
2021/05/31 12:29:52;;;;;;;3.03;1.63;;;22.40;44.20;;;;;;5085007;28;20115;-63
2021/05/31 12:32:21;;;;;;;5.00;1.70;;;22.40;44.20;;;;;;5093122;28;20036;-62
2021/05/31 12:34:47;;;;;;;3.50;1.90;;;22.50;44.20;;;;;;5080819;28;20047;-62
2021/05/31 12:37:18;;;;;;;4.07;1.95;;;22.50;44.10;;;;;;5073090;28;20052;-62
2021/05/31 12:39:49;;;;;;;6.32;2.13;;;22.50;44.10;;;;;;5088055;28;20048;-62
2021/05/31 12:42:29;;;;;;;5.72;1.90;;;22.60;44.10;;;;;;5074254;28;20036;-62
2021/05/31 12:45:15;;;;;;;3.08;1.80;;;22.70;44.00;;;;;;5081937;28;20024;-63
2021/05/31 12:47:43;;;;;;;6.05;2.03;;;22.70;44.10;;;;;;5093092;28;20030;-62
2021/05/31 12:50:12;;;;;;;4.32;1.83;;;22.70;44.10;;;;;;5074422;28;20111;-62
2021/05/31 12:52:45;;;;;;;6.88;2.53;;;22.70;44.00;;;;;;5073872;28;20554;-62
2021/05/31 12:55:14;;;;;;;4.50;2.20;;;22.60;43.40;;;;;;5081317;28;20024;-64
2021/05/31 12:57:45;;;;;;;4.60;2.20;;;22.60;43.90;;;;;;5079015;28;20047;-65
2021/05/31 13:00:16;;;;;;;5.15;2.10;;;22.80;43.50;;;;;;5092800;28;20032;-65
2021/05/31 13:02:47;;;;;;;5.35;2.08;;;22.60;43.90;;;;;;5085184;28;20073;-67